sensor_id;sensor_type;location;lat;lon;timestamp;temperature;humidity
23769;DHT22;12064;50.890;5.424;2023-01-13T00:08:14;22.40;69.50
23769;DHT22;12064;50.890;5.424;2023-01-13T00:17:05;22.10;70.10
23769;DHT22;12064;50.890;5.424;2023-01-13T00:26:00;21.90;70.60
23769;DHT22;12064;50.890;5.424;2023-01-13T00:34:54;21.70;71.20
23769;DHT22;12064;50.890;5.424;2023-01-13T00:43:45;21.80;70.80
23769;DHT22;12064;50.890;5.424;2023-01-13T00:52:36;21.70;71.00
23769;DHT22;12064;50.890;5.424;2023-01-13T01:11:32;21.60;71.10
23769;DHT22;12064;50.890;5.424;2023-01-13T01:20:23;21.70;70.60
23769;DHT22;12064;50.890;5.424;2023-01-13T01:29:16;21.90;69.80
23769;DHT22;12064;50.890;5.424;2023-01-13T01:38:07;21.60;70.40
23769;DHT22;12064;50.890;5.424;2023-01-13T01:46:58;21.50;70.90
23769;DHT22;12064;50.890;5.424;2023-01-13T01:55:48;21.20;71.70
23769;DHT22;12064;50.890;5.424;2023-01-13T02:04:43;21.20;71.50
23769;DHT22;12064;50.890;5.424;2023-01-13T02:13:40;21.40;71.20
23769;DHT22;12064;50.890;5.424;2023-01-13T02:31:47;21.30;71.00
23769;DHT22;12064;50.890;5.424;2023-01-13T02:40:51;21.90;69.30
23769;DHT22;12064;50.890;5.424;2023-01-13T02:49:54;22.00;68.40
23769;DHT22;12064;50.890;5.424;2023-01-13T02:58:49;22.20;68.30
23769;DHT22;12064;50.890;5.424;2023-01-13T03:17:36;22.00;68.30
23769;DHT22;12064;50.890;5.424;2023-01-13T03:26:37;22.00;68.50
23769;DHT22;12064;50.890;5.424;2023-01-13T03:35:50;22.00;68.40
23769;DHT22;12064;50.890;5.424;2023-01-13T03:44:59;22.10;68.10
23769;DHT22;12064;50.890;5.424;2023-01-13T03:53:55;21.90;68.30
23769;DHT22;12064;50.890;5.424;2023-01-13T04:02:55;22.20;68.30
23769;DHT22;12064;50.890;5.424;2023-01-13T04:12:09;21.90;68.40
23769;DHT22;12064;50.890;5.424;2023-01-13T04:21:01;21.80;69.30
23769;DHT22;12064;50.890;5.424;2023-01-13T04:29:54;21.80;68.70
23769;DHT22;12064;50.890;5.424;2023-01-13T04:38:45;21.40;70.00
23769;DHT22;12064;50.890;5.424;2023-01-13T04:47:36;20.30;74.20
23769;DHT22;12064;50.890;5.424;2023-01-13T04:56:27;20.30;74.60
23769;DHT22;12064;50.890;5.424;2023-01-13T05:05:18;20.70;74.00
23769;DHT22;12064;50.890;5.424;2023-01-13T05:14:09;20.90;73.40
23769;DHT22;12064;50.890;5.424;2023-01-13T05:33:04;20.80;73.90
23769;DHT22;12064;50.890;5.424;2023-01-13T05:41:55;21.10;73.50
23769;DHT22;12064;50.890;5.424;2023-01-13T05:51:06;21.20;73.00
23769;DHT22;12064;50.890;5.424;2023-01-13T05:59:59;21.20;73.30
23769;DHT22;12064;50.890;5.424;2023-01-13T06:08:50;21.00;73.80
23769;DHT22;12064;50.890;5.424;2023-01-13T06:17:41;20.80;74.20
23769;DHT22;12064;50.890;5.424;2023-01-13T06:26:35;20.70;74.70
23769;DHT22;12064;50.890;5.424;2023-01-13T06:35:32;20.60;75.10
23769;DHT22;12064;50.890;5.424;2023-01-13T06:44:24;20.70;74.60
23769;DHT22;12064;50.890;5.424;2023-01-13T06:53:19;20.80;74.20
23769;DHT22;12064;50.890;5.424;2023-01-13T07:02:12;20.70;74.50
23769;DHT22;12064;50.890;5.424;2023-01-13T07:11:07;20.80;74.40
23769;DHT22;12064;50.890;5.424;2023-01-13T07:19:58;20.70;74.80
23769;DHT22;12064;50.890;5.424;2023-01-13T07:28:51;21.10;73.50
23769;DHT22;12064;50.890;5.424;2023-01-13T07:37:42;21.50;73.60
23769;DHT22;12064;50.890;5.424;2023-01-13T07:46:33;22.60;70.80
23769;DHT22;12064;50.890;5.424;2023-01-13T07:55:23;22.90;68.70
23769;DHT22;12064;50.890;5.424;2023-01-13T08:04:14;22.30;71.20
23769;DHT22;12064;50.890;5.424;2023-01-13T08:13:15;23.10;68.30
23769;DHT22;12064;50.890;5.424;2023-01-13T08:22:11;23.40;66.60
23769;DHT22;12064;50.890;5.424;2023-01-13T08:31:08;23.20;66.80
23769;DHT22;12064;50.890;5.424;2023-01-13T08:40:00;23.10;66.90
23769;DHT22;12064;50.890;5.424;2023-01-13T08:48:51;23.10;67.00
23769;DHT22;12064;50.890;5.424;2023-01-13T08:57:42;23.10;66.50
23769;DHT22;12064;50.890;5.424;2023-01-13T09:06:32;23.00;66.80
23769;DHT22;12064;50.890;5.424;2023-01-13T09:15:26;22.90;67.10
23769;DHT22;12064;50.890;5.424;2023-01-13T09:24:18;22.90;67.50
23769;DHT22;12064;50.890;5.424;2023-01-13T09:33:08;22.80;67.00
23769;DHT22;12064;50.890;5.424;2023-01-13T09:51:35;22.50;67.90
23769;DHT22;12064;50.890;5.424;2023-01-13T10:00:38;22.70;68.20
23769;DHT22;12064;50.890;5.424;2023-01-13T10:09:48;22.30;70.40
23769;DHT22;12064;50.890;5.424;2023-01-13T10:27:54;23.20;68.50
23769;DHT22;12064;50.890;5.424;2023-01-13T10:46:10;23.60;68.10
23769;DHT22;12064;50.890;5.424;2023-01-13T10:55:02;23.70;67.90
23769;DHT22;12064;50.890;5.424;2023-01-13T11:13:42;23.70;67.40
23769;DHT22;12064;50.890;5.424;2023-01-13T11:23:18;23.50;67.60
23769;DHT22;12064;50.890;5.424;2023-01-13T11:32:17;23.40;67.60
23769;DHT22;12064;50.890;5.424;2023-01-13T11:41:44;23.30;67.50
23769;DHT22;12064;50.890;5.424;2023-01-13T11:51:09;23.10;67.90
23769;DHT22;12064;50.890;5.424;2023-01-13T12:09:43;22.70;69.10
23769;DHT22;12064;50.890;5.424;2023-01-13T12:28:14;22.90;69.40
23769;DHT22;12064;50.890;5.424;2023-01-13T12:55:20;23.40;68.20
23769;DHT22;12064;50.890;5.424;2023-01-13T13:04:19;23.50;67.60
23769;DHT22;12064;50.890;5.424;2023-01-13T13:13:44;23.50;67.40
23769;DHT22;12064;50.890;5.424;2023-01-13T13:22:42;23.30;67.50
23769;DHT22;12064;50.890;5.424;2023-01-13T13:31:52;23.10;67.60
23769;DHT22;12064;50.890;5.424;2023-01-13T13:40:46;22.90;67.80
23769;DHT22;12064;50.890;5.424;2023-01-13T13:50:22;22.80;68.10
23769;DHT22;12064;50.890;5.424;2023-01-13T13:59:23;22.70;68.10
23769;DHT22;12064;50.890;5.424;2023-01-13T14:08:16;22.70;67.90
23769;DHT22;12064;50.890;5.424;2023-01-13T14:17:18;21.80;70.20
23769;DHT22;12064;50.890;5.424;2023-01-13T14:26:12;21.50;72.20
23769;DHT22;12064;50.890;5.424;2023-01-13T14:35:06;22.80;68.80
23769;DHT22;12064;50.890;5.424;2023-01-13T14:44:00;23.20;68.00
23769;DHT22;12064;50.890;5.424;2023-01-13T14:52:53;23.40;68.10
23769;DHT22;12064;50.890;5.424;2023-01-13T15:11:26;23.30;68.00
23769;DHT22;12064;50.890;5.424;2023-01-13T15:20:21;23.60;67.60
23769;DHT22;12064;50.890;5.424;2023-01-13T15:29:13;23.40;68.40
23769;DHT22;12064;50.890;5.424;2023-01-13T15:38:19;23.40;68.60
23769;DHT22;12064;50.890;5.424;2023-01-13T15:47:12;23.60;68.30
23769;DHT22;12064;50.890;5.424;2023-01-13T15:56:07;23.50;68.00
23769;DHT22;12064;50.890;5.424;2023-01-13T16:05:01;23.60;67.80
23769;DHT22;12064;50.890;5.424;2023-01-13T16:13:52;22.20;71.70
23769;DHT22;12064;50.890;5.424;2023-01-13T16:22:43;21.30;75.30
23769;DHT22;12064;50.890;5.424;2023-01-13T16:31:34;21.10;75.80
23769;DHT22;12064;50.890;5.424;2023-01-13T16:40:31;20.90;76.20
23769;DHT22;12064;50.890;5.424;2023-01-13T16:49:30;20.90;75.80
23769;DHT22;12064;50.890;5.424;2023-01-13T16:58:57;21.00;75.80
23769;DHT22;12064;50.890;5.424;2023-01-13T17:07:48;21.00;75.70
23769;DHT22;12064;50.890;5.424;2023-01-13T17:26:38;20.70;76.40
23769;DHT22;12064;50.890;5.424;2023-01-13T17:35:31;20.80;76.20
23769;DHT22;12064;50.890;5.424;2023-01-13T17:44:25;20.90;75.60
23769;DHT22;12064;50.890;5.424;2023-01-13T17:53:19;20.90;75.60
23769;DHT22;12064;50.890;5.424;2023-01-13T18:02:11;20.70;76.00
23769;DHT22;12064;50.890;5.424;2023-01-13T18:11:01;20.70;76.10
23769;DHT22;12064;50.890;5.424;2023-01-13T18:19:52;20.90;75.60
23769;DHT22;12064;50.890;5.424;2023-01-13T18:38:49;20.80;75.60
23769;DHT22;12064;50.890;5.424;2023-01-13T18:47:40;20.70;76.00
23769;DHT22;12064;50.890;5.424;2023-01-13T18:56:33;20.90;75.40
23769;DHT22;12064;50.890;5.424;2023-01-13T19:05:25;21.00;75.10
23769;DHT22;12064;50.890;5.424;2023-01-13T19:14:16;21.00;74.60
23769;DHT22;12064;50.890;5.424;2023-01-13T19:23:52;20.90;74.80
23769;DHT22;12064;50.890;5.424;2023-01-13T19:42:51;21.20;74.80
23769;DHT22;12064;50.890;5.424;2023-01-13T19:52:00;22.00;73.00
23769;DHT22;12064;50.890;5.424;2023-01-13T20:00:54;22.40;72.80
23769;DHT22;12064;50.890;5.424;2023-01-13T20:09:48;23.60;69.80
23769;DHT22;12064;50.890;5.424;2023-01-13T20:18:39;23.90;69.90
23769;DHT22;12064;50.890;5.424;2023-01-13T20:27:30;24.30;68.70
23769;DHT22;12064;50.890;5.424;2023-01-13T20:36:26;24.40;69.10
23769;DHT22;12064;50.890;5.424;2023-01-13T20:45:20;24.30;68.30
23769;DHT22;12064;50.890;5.424;2023-01-13T20:54:13;24.30;68.70
23769;DHT22;12064;50.890;5.424;2023-01-13T21:03:06;24.50;68.10
23769;DHT22;12064;50.890;5.424;2023-01-13T21:11:59;24.80;67.20
23769;DHT22;12064;50.890;5.424;2023-01-13T21:21:08;24.30;67.90
23769;DHT22;12064;50.890;5.424;2023-01-13T21:30:02;24.60;67.40
23769;DHT22;12064;50.890;5.424;2023-01-13T21:39:16;24.50;67.40
23769;DHT22;12064;50.890;5.424;2023-01-13T21:48:07;24.50;67.40
23769;DHT22;12064;50.890;5.424;2023-01-13T21:56:58;24.30;67.40
23769;DHT22;12064;50.890;5.424;2023-01-13T22:06:19;24.50;66.50
23769;DHT22;12064;50.890;5.424;2023-01-13T22:15:28;24.40;66.60
23769;DHT22;12064;50.890;5.424;2023-01-13T22:24:20;24.20;66.60
23769;DHT22;12064;50.890;5.424;2023-01-13T22:33:11;24.00;67.60
23769;DHT22;12064;50.890;5.424;2023-01-13T22:51:35;23.90;68.10
23769;DHT22;12064;50.890;5.424;2023-01-13T23:00:26;23.80;67.30
23769;DHT22;12064;50.890;5.424;2023-01-13T23:09:19;23.60;67.60
23769;DHT22;12064;50.890;5.424;2023-01-13T23:18:10;23.40;68.20
23769;DHT22;12064;50.890;5.424;2023-01-13T23:27:00;23.10;68.70
23769;DHT22;12064;50.890;5.424;2023-01-13T23:35:59;23.10;68.60
23769;DHT22;12064;50.890;5.424;2023-01-13T23:44:50;22.80;69.20
23769;DHT22;12064;50.890;5.424;2023-01-13T23:53:45;22.80;69.00
